Skip Navigation Links Skip Navigation Links

Current Weather

Phoenix Sky Harbor Intl, Phoenix, Ariz.

For information only: do not use for flight planning or navigation.
Latest weather
Observation time Monday, September 16, 2019 11:51 PM MST
Local time Tuesday, September 17, 2019 12:04 AM MST
Flight conditions Visual Meteorological Conditions
Winds
Wind direction South-Southeast (150°)
Wind speed 9 mph
Visibility 10 mi.
Sky condition
Ceiling unlimited
Cloud layer few clouds 11,000 ft.
Cloud layer few clouds 15,000 ft.
Temperature 80°F
Dewpoint 60°F
Altimeter 29.86 in.Hg
Derived measurements
Relative humidity 51%
Heat index 81°F
Density altitude 2799 ft.
Sea-level pressure 29.80 in.Hg
Climate data
Temperature minimum, last 24 hours 77°F
Temperature maximum, last 24 hours 99°F
Remarks
Automated weather observing station with precipitation discriminator.
METAR KPHX 170651Z 15008KT 10SM FEW110 FEW150 27/16 A2986 RMK AO2 SLP092 T02670156 403720250

Settings

Location code

InnerDrive.Weather 4.0.6770.0 Release CLR 4.0.30319.42000
Copyright ©2018 Inner Drive Technology. All rights reserved. Portions Copyright ©1986-2018 David Braverman.

Find weather

Site navigation


Skip Navigation Links

Place info

Page info

PayPal - The safer, easier way to pay online!

Return home.

Copyright ©2019 Inner Drive Technology. Purveyors of fine, hand-crafted computer software. Page printed 2019-09-17T07:04:12 UTC.